Time;durP1;ratioP1;P1;durP2;ratioP2;P2;SDS_P1;SDS_P2;PMS_P1;PMS_P2;Temp;Humidity;BMP_temperature;BMP_pressure;BME280_temperature;BME280_humidity;BME280_pressure;Samples;Min_cycle;Max_cycle;Signal;HPM_P1;HPM_P2
2023/12/15 00:00:16;;;;;;;5.63;3.93;;;3.30;99.90;;;;;;5097082;28;20564;-81
2023/12/15 00:02:42;;;;;;;3.60;3.30;;;3.30;99.90;;;;;;5094794;28;20166;-77
2023/12/15 00:05:11;;;;;;;3.33;3.03;;;3.30;99.90;;;;;;5094730;28;20174;-81
2023/12/15 00:07:37;;;;;;;3.23;2.93;;;3.40;99.90;;;;;;5070326;28;20549;-77
2023/12/15 00:10:03;;;;;;;3.13;2.60;;;3.40;99.90;;;;;;5091968;28;20306;-78
2023/12/15 00:12:29;;;;;;;4.83;3.57;;;3.40;99.90;;;;;;5097058;28;20263;-81
2023/12/15 00:14:54;;;;;;;2.83;2.63;;;3.40;99.90;;;;;;5094324;28;20202;-79
2023/12/15 00:17:20;;;;;;;3.60;3.30;;;3.50;99.90;;;;;;5104296;28;20170;-77
2023/12/15 00:19:46;;;;;;;5.50;3.07;;;3.50;99.90;;;;;;5109663;28;20190;-78
2023/12/15 00:22:11;;;;;;;3.80;3.37;;;3.50;99.90;;;;;;5111965;28;20172;-77
2023/12/15 00:24:37;;;;;;;4.90;4.40;;;3.50;99.90;;;;;;5098140;28;20259;-78
2023/12/15 00:27:03;;;;;;;8.20;5.80;;;3.60;99.90;;;;;;5097075;28;20181;-80
2023/12/15 00:29:29;;;;;;;7.33;6.50;;;3.50;99.90;;;;;;5096068;28;20168;-80
2023/12/15 00:31:55;;;;;;;10.77;8.13;;;3.40;99.90;;;;;;5094002;28;20862;-78
2023/12/15 00:34:21;;;;;;;10.60;9.03;;;3.40;99.90;;;;;;5095479;28;20543;-79
2023/12/15 00:36:46;;;;;;;11.97;9.93;;;3.30;99.90;;;;;;5076434;28;20178;-78
2023/12/15 00:39:12;;;;;;;15.17;10.43;;;3.20;99.90;;;;;;5093289;28;20646;-78
2023/12/15 00:41:38;;;;;;;11.70;10.03;;;3.00;99.90;;;;;;5094346;28;20210;-78
2023/12/15 00:44:04;;;;;;;12.90;10.03;;;2.90;99.90;;;;;;5075724;28;20169;-77
2023/12/15 00:46:30;;;;;;;12.87;9.90;;;2.80;99.90;;;;;;5093042;28;20347;-77
2023/12/15 00:48:55;;;;;;;12.83;10.30;;;2.80;99.90;;;;;;5077193;28;20178;-79
2023/12/15 00:51:21;;;;;;;13.23;10.53;;;2.80;99.90;;;;;;5097260;28;20588;-79
2023/12/15 00:53:47;;;;;;;12.37;9.77;;;2.70;99.90;;;;;;5097546;28;20167;-80
2023/12/15 00:56:13;;;;;;;12.37;10.53;;;2.80;99.90;;;;;;5097601;28;20185;-78
2023/12/15 00:58:39;;;;;;;12.13;9.33;;;2.70;99.90;;;;;;5095679;28;20185;-78
2023/12/15 01:01:06;;;;;;;11.27;9.20;;;2.70;99.90;;;;;;5093662;28;20218;-79
2023/12/15 01:03:31;;;;;;;13.57;9.70;;;2.60;99.90;;;;;;5092568;28;20183;-79
2023/12/15 01:05:57;;;;;;;11.93;9.30;;;2.60;99.90;;;;;;5094481;28;20509;-80
2023/12/15 01:08:24;;;;;;;12.37;10.07;;;2.60;99.90;;;;;;5093413;28;20653;-80
2023/12/15 01:10:50;;;;;;;11.97;9.10;;;2.60;99.90;;;;;;5097361;28;20218;-79
2023/12/15 01:13:16;;;;;;;11.23;9.40;;;2.50;99.90;;;;;;5096616;28;20182;-79
2023/12/15 01:15:41;;;;;;;10.23;9.13;;;2.60;99.90;;;;;;5097904;28;20182;-80
2023/12/15 01:18:07;;;;;;;15.40;9.60;;;2.60;99.90;;;;;;5097109;28;20180;-79
2023/12/15 01:20:33;;;;;;;12.53;8.73;;;2.60;99.90;;;;;;5098260;28;20676;-77
2023/12/15 01:22:59;;;;;;;11.80;8.93;;;2.70;99.90;;;;;;5098048;28;20554;-77
2023/12/15 01:25:25;;;;;;;16.87;9.47;;;2.70;99.90;;;;;;5097663;28;20186;-79
2023/12/15 01:27:50;;;;;;;14.40;8.80;;;2.70;99.90;;;;;;5098339;28;20184;-78
2023/12/15 01:30:16;;;;;;;13.50;8.60;;;2.80;99.90;;;;;;5101698;28;20176;-79
2023/12/15 01:32:42;;;;;;;10.83;7.63;;;2.80;99.90;;;;;;5101431;28;20235;-78
2023/12/15 01:35:08;;;;;;;5.40;4.90;;;2.90;99.90;;;;;;5108253;28;20188;-78
2023/12/15 01:37:34;;;;;;;5.73;4.87;;;3.00;99.90;;;;;;5078572;28;20178;-80
2023/12/15 01:40:00;;;;;;;6.30;5.13;;;3.00;99.90;;;;;;5097326;28;20214;-80
2023/12/15 01:42:26;;;;;;;6.33;5.70;;;3.10;99.90;;;;;;5096075;28;20178;-78
2023/12/15 01:44:53;;;;;;;4.80;4.40;;;3.00;99.90;;;;;;5097054;28;20651;-77
2023/12/15 01:47:19;;;;;;;5.67;4.10;;;3.00;99.90;;;;;;5098785;28;20189;-79
2023/12/15 01:49:46;;;;;;;4.03;3.67;;;3.00;99.90;;;;;;5096417;28;20257;-80
2023/12/15 01:52:12;;;;;;;3.63;3.33;;;3.00;99.90;;;;;;5096660;28;20168;-78
2023/12/15 01:54:38;;;;;;;4.90;3.93;;;3.00;99.90;;;;;;5096950;28;20518;-79
2023/12/15 01:57:04;;;;;;;3.60;3.30;;;3.10;99.90;;;;;;5095913;28;20220;-81
2023/12/15 01:59:49;;;;;;;3.40;3.10;;;3.10;99.90;;;;;;5097999;28;20179;-79
2023/12/15 02:02:15;;;;;;;3.03;2.73;;;3.00;99.90;;;;;;5078162;28;20240;-77
2023/12/15 02:04:41;;;;;;;4.20;2.97;;;3.10;99.90;;;;;;5102255;28;20171;-80
2023/12/15 02:07:08;;;;;;;3.53;2.80;;;3.10;99.90;;;;;;5079104;28;20539;-77
2023/12/15 02:09:33;;;;;;;2.93;2.73;;;3.10;99.90;;;;;;5096404;28;20255;-78
2023/12/15 02:11:59;;;;;;;2.70;2.50;;;3.20;99.90;;;;;;5097450;28;20177;-80
2023/12/15 02:14:25;;;;;;;2.60;2.40;;;3.30;99.90;;;;;;5105031;28;20252;-77
2023/12/15 02:16:51;;;;;;;2.30;2.10;;;3.30;99.90;;;;;;5108309;28;20195;-77
2023/12/15 02:19:17;;;;;;;2.97;2.30;;;3.30;99.90;;;;;;5084235;28;20190;-78
2023/12/15 02:21:43;;;;;;;2.40;2.20;;;3.40;99.90;;;;;;5110456;28;20208;-80
2023/12/15 02:24:08;;;;;;;2.40;2.20;;;3.40;99.90;;;;;;5107756;28;20561;-78
2023/12/15 02:26:37;;;;;;;3.50;2.70;;;3.50;99.90;;;;;;5097706;28;20533;-77
2023/12/15 02:29:03;;;;;;;2.73;2.53;;;3.50;99.90;;;;;;5078377;28;20177;-77
2023/12/15 02:31:28;;;;;;;2.47;2.33;;;3.60;99.90;;;;;;5096965;28;20258;-78
2023/12/15 02:33:54;;;;;;;2.33;2.23;;;3.60;99.90;;;;;;5094819;28;20194;-80
2023/12/15 02:36:21;;;;;;;2.77;2.50;;;3.50;99.90;;;;;;5094893;28;20168;-80
2023/12/15 02:38:47;;;;;;;2.97;2.53;;;3.50;99.90;;;;;;5095195;28;20239;-78
2023/12/15 02:41:13;;;;;;;2.57;2.37;;;3.50;99.90;;;;;;5095192;28;20242;-79
2023/12/15 02:43:39;;;;;;;2.47;2.37;;;3.50;99.90;;;;;;5095174;28;20264;-82
2023/12/15 02:46:05;;;;;;;2.50;2.30;;;3.60;99.90;;;;;;5094687;28;20174;-78
2023/12/15 02:48:31;;;;;;;2.27;2.17;;;3.60;99.90;;;;;;5078948;28;20256;-77
2023/12/15 02:50:57;;;;;;;2.70;2.50;;;3.50;99.90;;;;;;5109061;28;20178;-78
2023/12/15 02:53:23;;;;;;;3.27;2.70;;;3.60;99.90;;;;;;5095539;28;20171;-77
2023/12/15 02:55:49;;;;;;;2.53;2.43;;;3.60;99.90;;;;;;5096331;28;20179;-78
2023/12/15 02:58:16;;;;;;;2.57;2.47;;;3.70;99.90;;;;;;5096675;28;20175;-79
2023/12/15 03:00:42;;;;;;;2.63;2.47;;;3.70;99.90;;;;;;5097068;28;20218;-81
2023/12/15 03:03:07;;;;;;;6.77;2.60;;;3.70;99.90;;;;;;5095702;28;20204;-80
2023/12/15 03:05:35;;;;;;;2.20;2.10;;;3.70;99.90;;;;;;5096285;28;20175;-80
2023/12/15 03:08:01;;;;;;;2.67;2.53;;;3.80;99.90;;;;;;5094921;28;20215;-80
2023/12/15 03:10:26;;;;;;;3.37;2.43;;;3.80;99.90;;;;;;5094694;28;20221;-81
2023/12/15 03:12:52;;;;;;;2.30;2.20;;;3.80;99.90;;;;;;5095913;28;20172;-76
2023/12/15 03:15:18;;;;;;;2.00;1.90;;;3.80;99.90;;;;;;5095459;28;20653;-77
2023/12/15 03:17:44;;;;;;;2.07;1.97;;;3.70;99.90;;;;;;5087032;28;20182;-79
2023/12/15 03:20:10;;;;;;;2.30;2.20;;;3.70;99.90;;;;;;5077903;28;20230;-79
2023/12/15 03:22:37;;;;;;;2.20;2.10;;;3.60;99.90;;;;;;5075745;28;20178;-79
2023/12/15 03:25:04;;;;;;;2.10;2.00;;;3.60;99.90;;;;;;5076172;28;20170;-79
2023/12/15 03:27:31;;;;;;;1.90;1.80;;;3.70;99.90;;;;;;5076202;28;20272;-78
2023/12/15 03:29:57;;;;;;;3.03;2.27;;;3.60;99.90;;;;;;5094446;28;20170;-80
2023/12/15 03:32:24;;;;;;;2.40;2.20;;;3.50;99.90;;;;;;5075663;28;20608;-80
2023/12/15 03:34:51;;;;;;;2.07;1.97;;;3.50;99.90;;;;;;5094004;28;20184;-80
2023/12/15 03:37:18;;;;;;;2.20;2.10;;;3.50;99.90;;;;;;5094367;28;20181;-80
2023/12/15 03:39:44;;;;;;;2.37;2.20;;;3.50;99.90;;;;;;5075640;28;20220;-81
2023/12/15 03:42:11;;;;;;;2.03;1.93;;;3.50;99.90;;;;;;5094679;28;20638;-78
2023/12/15 03:44:39;;;;;;;2.40;2.17;;;3.50;99.90;;;;;;5093673;28;20186;-79
2023/12/15 03:47:08;;;;;;;2.43;2.00;;;3.50;99.90;;;;;;5094199;28;20773;-76
2023/12/15 03:49:35;;;;;;;2.30;2.20;;;3.60;99.90;;;;;;5094297;28;20179;-78
2023/12/15 03:52:01;;;;;;;2.17;2.07;;;3.60;99.90;;;;;;5093141;28;20296;-78
2023/12/15 03:54:27;;;;;;;2.03;1.93;;;3.60;99.90;;;;;;5093986;28;20259;-81
2023/12/15 03:56:56;;;;;;;2.20;2.10;;;3.60;99.90;;;;;;5094443;28;20651;-79
2023/12/15 03:59:22;;;;;;;1.90;1.80;;;3.60;99.90;;;;;;5093344;28;20175;-80
2023/12/15 04:01:48;;;;;;;1.90;1.80;;;3.70;99.90;;;;;;5093733;28;20175;-79
2023/12/15 04:04:14;;;;;;;2.43;2.00;;;3.60;99.90;;;;;;5093591;28;20584;-77
2023/12/15 04:06:40;;;;;;;2.60;1.90;;;3.70;99.90;;;;;;5094173;28;20232;-79
2023/12/15 04:09:09;;;;;;;2.10;2.00;;;3.60;99.90;;;;;;5093674;28;20252;-80
2023/12/15 04:11:38;;;;;;;2.40;2.20;;;3.60;99.90;;;;;;5082995;28;20183;-79
2023/12/15 04:14:11;;;;;;;2.77;2.20;;;3.50;99.90;;;;;;5073957;28;20171;-78
2023/12/15 04:16:40;;;;;;;2.33;2.10;;;3.50;99.90;;;;;;5075378;28;20170;-78
2023/12/15 04:19:06;;;;;;;2.23;2.13;;;3.50;99.90;;;;;;5094829;28;20170;-78
2023/12/15 04:21:32;;;;;;;2.30;2.10;;;3.50;99.90;;;;;;5095537;28;20218;-78
2023/12/15 04:23:59;;;;;;;2.10;2.00;;;3.40;99.90;;;;;;5112554;28;20155;-78
2023/12/15 04:26:25;;;;;;;2.07;1.97;;;3.50;99.90;;;;;;5095711;28;20277;-80
2023/12/15 04:28:52;;;;;;;2.60;2.40;;;3.40;99.90;;;;;;5093368;28;20526;-78
2023/12/15 04:31:18;;;;;;;2.50;2.30;;;3.50;99.90;;;;;;5093505;28;20651;-80
2023/12/15 04:33:44;;;;;;;2.20;2.00;;;3.50;99.90;;;;;;5093439;28;20255;-81
2023/12/15 04:36:13;;;;;;;2.23;2.13;;;3.50;99.90;;;;;;5075032;28;20270;-78
2023/12/15 04:38:39;;;;;;;2.23;2.13;;;3.50;99.90;;;;;;5094543;28;20631;-79
2023/12/15 04:41:06;;;;;;;2.10;2.00;;;3.50;99.90;;;;;;5094196;28;20265;-79
2023/12/15 04:43:32;;;;;;;2.57;2.37;;;3.50;99.90;;;;;;5093842;28;20288;-78
2023/12/15 04:45:58;;;;;;;2.37;2.20;;;3.60;99.90;;;;;;5092843;28;20233;-79
2023/12/15 04:48:23;;;;;;;2.40;2.30;;;3.60;99.90;;;;;;5074654;28;20271;-79
2023/12/15 04:50:49;;;;;;;2.27;2.17;;;3.60;99.90;;;;;;5092320;28;20543;-78
2023/12/15 04:53:15;;;;;;;2.60;2.50;;;3.60;99.90;;;;;;5097986;28;20237;-79
2023/12/15 04:55:41;;;;;;;4.20;3.23;;;3.60;99.90;;;;;;5100813;28;20666;-79
2023/12/15 04:58:07;;;;;;;4.40;4.00;;;3.50;99.90;;;;;;5095416;28;20191;-77
2023/12/15 05:00:32;;;;;;;4.27;3.87;;;3.50;99.90;;;;;;5097623;28;20219;-78
2023/12/15 05:02:59;;;;;;;5.43;4.23;;;3.50;99.90;;;;;;5085023;28;20176;-78
2023/12/15 05:05:25;;;;;;;5.53;4.90;;;3.40;99.90;;;;;;5094067;28;20308;-77
2023/12/15 05:07:52;;;;;;;6.33;5.73;;;3.30;99.90;;;;;;5094179;28;20197;-80
2023/12/15 05:10:18;;;;;;;6.47;5.87;;;3.20;99.90;;;;;;5093310;28;20311;-80
2023/12/15 05:12:45;;;;;;;6.93;6.23;;;2.90;99.90;;;;;;5093181;28;20182;-79
2023/12/15 05:15:10;;;;;;;9.17;6.47;;;2.90;99.90;;;;;;5093525;28;20181;-78
2023/12/15 05:17:37;;;;;;;7.20;6.47;;;2.90;99.90;;;;;;5110959;28;20231;-81
2023/12/15 05:20:03;;;;;;;7.23;6.30;;;2.80;99.90;;;;;;5094607;28;20218;-79
2023/12/15 05:22:29;;;;;;;7.43;6.23;;;2.90;99.90;;;;;;5094511;28;20204;-78
2023/12/15 05:24:55;;;;;;;6.20;5.63;;;3.00;99.90;;;;;;5094209;28;20555;-79
2023/12/15 05:27:21;;;;;;;7.30;6.10;;;2.80;99.90;;;;;;5092715;28;20175;-80
2023/12/15 05:29:46;;;;;;;6.10;5.50;;;2.80;99.90;;;;;;5092460;28;20183;-80
2023/12/15 05:32:13;;;;;;;6.43;5.83;;;2.80;99.90;;;;;;5092449;28;20167;-81
2023/12/15 05:34:40;;;;;;;7.13;5.57;;;2.80;99.90;;;;;;5093258;28;20183;-79
2023/12/15 05:37:06;;;;;;;11.63;5.77;;;2.80;99.90;;;;;;5092673;28;20177;-80
2023/12/15 05:39:32;;;;;;;5.93;5.37;;;2.70;99.90;;;;;;5091984;28;20171;-79
2023/12/15 05:41:58;;;;;;;5.23;4.73;;;2.70;99.90;;;;;;5092567;28;20201;-80
2023/12/15 05:44:23;;;;;;;6.30;5.20;;;2.70;99.90;;;;;;5092203;28;20213;-81
2023/12/15 05:46:49;;;;;;;5.50;5.00;;;2.80;99.90;;;;;;5092562;28;20168;-80
2023/12/15 05:49:16;;;;;;;5.00;4.50;;;2.70;99.90;;;;;;5093571;28;20183;-78
2023/12/15 05:51:48;;;;;;;5.43;4.93;;;2.80;99.90;;;;;;5076535;28;20187;-78
2023/12/15 05:54:14;;;;;;;5.43;4.93;;;2.80;99.90;;;;;;5092848;28;20173;-81
2023/12/15 05:56:40;;;;;;;5.63;5.07;;;2.80;99.90;;;;;;5096323;28;20176;-80
2023/12/15 05:59:06;;;;;;;4.83;4.33;;;2.80;99.90;;;;;;5096163;28;20167;-81
2023/12/15 06:01:31;;;;;;;5.70;5.20;;;2.80;99.90;;;;;;5068257;28;20297;-80
2023/12/15 06:03:57;;;;;;;5.53;5.03;;;2.80;99.90;;;;;;5076058;28;20254;-80
2023/12/15 06:06:23;;;;;;;7.27;5.63;;;2.70;99.90;;;;;;5076136;28;20175;-80
2023/12/15 06:08:49;;;;;;;7.13;5.70;;;2.60;99.90;;;;;;5075860;28;20219;-78
2023/12/15 06:11:15;;;;;;;8.57;5.50;;;2.70;99.90;;;;;;5075802;28;20523;-79
2023/12/15 06:13:41;;;;;;;6.33;5.60;;;2.70;99.90;;;;;;5075668;28;20177;-78
2023/12/15 06:16:08;;;;;;;7.33;5.40;;;2.60;99.90;;;;;;5078380;28;20275;-75
2023/12/15 06:18:35;;;;;;;5.53;4.67;;;2.60;99.90;;;;;;5083900;28;20265;-78
2023/12/15 06:21:01;;;;;;;4.83;4.33;;;2.50;99.90;;;;;;5087342;28;20244;-80
2023/12/15 06:23:27;;;;;;;7.20;5.07;;;2.60;99.90;;;;;;5083874;28;20251;-77
2023/12/15 06:25:53;;;;;;;8.50;6.13;;;2.50;99.90;;;;;;5082513;28;20214;-78
2023/12/15 06:28:19;;;;;;;9.17;6.93;;;2.50;99.90;;;;;;5096034;28;20530;-78
2023/12/15 06:30:44;;;;;;;9.53;6.73;;;2.30;99.90;;;;;;5080907;28;20195;-80
2023/12/15 06:33:10;;;;;;;9.50;7.40;;;2.30;99.90;;;;;;5089012;28;20272;-79
2023/12/15 06:35:36;;;;;;;10.63;8.50;;;2.30;99.90;;;;;;5089996;28;20190;-79
2023/12/15 06:38:02;;;;;;;8.20;7.13;;;2.30;99.90;;;;;;5071571;28;20183;-77
2023/12/15 06:40:31;;;;;;;9.00;8.07;;;2.40;99.90;;;;;;5085404;28;20270;-77
2023/12/15 06:42:56;;;;;;;10.87;7.57;;;2.40;99.90;;;;;;5081825;28;20656;-77
2023/12/15 06:45:22;;;;;;;7.37;6.37;;;2.40;99.90;;;;;;5087801;28;20197;-77
2023/12/15 06:47:48;;;;;;;8.53;7.73;;;2.30;99.90;;;;;;5105280;28;20185;-79
2023/12/15 06:50:14;;;;;;;7.80;6.93;;;2.30;99.90;;;;;;5092156;28;20183;-78
2023/12/15 06:52:40;;;;;;;10.10;7.60;;;2.30;99.90;;;;;;5048079;28;20189;-80
2023/12/15 06:55:07;;;;;;;8.43;7.50;;;2.30;99.90;;;;;;5078544;28;20180;-81
2023/12/15 06:57:33;;;;;;;7.37;6.67;;;2.30;99.90;;;;;;5075337;28;20289;-80
2023/12/15 06:59:59;;;;;;;7.47;6.70;;;2.30;99.90;;;;;;5057802;28;20218;-78
2023/12/15 07:02:25;;;;;;;9.80;7.67;;;2.40;99.90;;;;;;5080151;28;20184;-77
2023/12/15 07:04:51;;;;;;;8.87;7.97;;;2.40;99.90;;;;;;5077996;28;20180;-78
2023/12/15 07:07:17;;;;;;;8.40;7.43;;;2.30;99.90;;;;;;5074653;28;20252;-80
2023/12/15 07:09:42;;;;;;;8.00;7.20;;;2.30;99.90;;;;;;5078295;28;20312;-77
2023/12/15 07:12:09;;;;;;;7.50;6.80;;;2.40;99.90;;;;;;5094918;28;20194;-81
2023/12/15 07:14:36;;;;;;;7.70;6.37;;;3.40;99.90;;;;;;5094244;28;20181;-77
2023/12/15 07:17:02;;;;;;;9.67;6.83;;;2.40;99.90;;;;;;5097446;28;20166;-78
2023/12/15 07:19:28;;;;;;;9.07;6.97;;;2.30;99.90;;;;;;5117178;28;20177;-77
2023/12/15 07:21:54;;;;;;;7.67;6.50;;;2.20;99.90;;;;;;5115876;28;20220;-79
2023/12/15 07:24:19;;;;;;;8.40;6.73;;;2.30;99.90;;;;;;5116723;28;20665;-79
2023/12/15 07:26:46;;;;;;;10.77;6.97;;;2.30;99.90;;;;;;5117258;28;20254;-79
2023/12/15 07:29:13;;;;;;;8.63;7.10;;;2.40;99.90;;;;;;5123536;28;20189;-76
2023/12/15 07:31:39;;;;;;;10.47;6.83;;;2.40;99.90;;;;;;5125356;28;20185;-77
2023/12/15 07:34:06;;;;;;;8.17;6.67;;;2.40;99.90;;;;;;5115215;28;20239;-77
2023/12/15 07:36:32;;;;;;;8.53;7.37;;;2.60;99.90;;;;;;5115532;28;20698;-79
2023/12/15 07:38:57;;;;;;;7.83;6.90;;;2.60;99.90;;;;;;5113903;28;20186;-81
2023/12/15 07:41:24;;;;;;;7.40;6.70;;;2.60;99.90;;;;;;5115674;28;20266;-78
2023/12/15 07:43:50;;;;;;;8.37;6.90;;;2.60;99.90;;;;;;5122178;28;20169;-79
2023/12/15 07:46:17;;;;;;;13.13;7.57;;;2.70;99.90;;;;;;5119730;28;20219;-79
2023/12/15 07:48:43;;;;;;;6.93;6.13;;;2.70;99.90;;;;;;5123457;28;20175;-79
2023/12/15 07:51:20;;;;;;;8.13;6.53;;;2.80;99.90;;;;;;5117618;28;20252;-77
2023/12/15 07:53:47;;;;;;;7.67;6.23;;;2.80;99.90;;;;;;5117832;28;20169;-78
2023/12/15 07:56:24;;;;;;;6.67;6.03;;;2.80;99.90;;;;;;5120333;28;20170;-77
2023/12/15 07:58:51;;;;;;;8.93;6.40;;;2.80;99.90;;;;;;5119164;28;20526;-77
2023/12/15 08:01:18;;;;;;;6.77;6.07;;;2.90;99.90;;;;;;5118668;28;20222;-79
2023/12/15 08:03:44;;;;;;;6.23;5.70;;;3.00;99.90;;;;;;5120167;28;20194;-77
2023/12/15 08:06:14;;;;;;;8.27;6.07;;;3.00;99.90;;;;;;5115152;28;20173;-78
2023/12/15 08:08:41;;;;;;;8.10;6.50;;;3.00;99.90;;;;;;5113109;28;20177;-79
2023/12/15 08:11:07;;;;;;;8.83;7.13;;;2.90;99.90;;;;;;5094515;28;20191;-76
2023/12/15 08:13:33;;;;;;;22.53;13.43;;;3.10;99.90;;;;;;5094473;28;20219;-78
2023/12/15 08:15:59;;;;;;;8.13;6.90;;;3.10;99.90;;;;;;5075940;28;20243;-79
2023/12/15 08:18:24;;;;;;;7.50;5.67;;;3.10;99.90;;;;;;5095203;28;20311;-78
2023/12/15 08:20:50;;;;;;;6.10;5.60;;;3.10;99.90;;;;;;5084266;28;20210;-77
2023/12/15 08:23:16;;;;;;;7.13;5.53;;;3.20;99.90;;;;;;5082380;28;20174;-79
2023/12/15 08:25:42;;;;;;;5.67;5.13;;;3.20;99.90;;;;;;5100037;28;20175;-78
2023/12/15 08:28:11;;;;;;;13.60;5.60;;;3.20;99.90;;;;;;5098072;28;20177;-78
2023/12/15 08:30:37;;;;;;;6.03;5.53;;;3.30;99.90;;;;;;5103720;28;20168;-78
2023/12/15 08:33:03;;;;;;;8.07;5.80;;;3.40;99.90;;;;;;5093816;28;20170;-78
2023/12/15 08:35:30;;;;;;;6.53;5.83;;;3.50;99.90;;;;;;5093884;28;20207;-81
2023/12/15 08:37:56;;;;;;;5.93;5.37;;;3.40;99.90;;;;;;5094657;28;20175;-77
2023/12/15 08:40:23;;;;;;;6.63;5.40;;;3.50;99.90;;;;;;5075781;28;20207;-79
2023/12/15 08:42:49;;;;;;;8.47;5.90;;;3.60;99.90;;;;;;5094236;28;20579;-79
2023/12/15 08:45:14;;;;;;;7.00;5.73;;;3.60;99.90;;;;;;5093840;28;20179;-78
2023/12/15 08:47:40;;;;;;;6.77;5.57;;;3.70;99.90;;;;;;5093836;28;20170;-76
2023/12/15 08:50:06;;;;;;;6.60;5.67;;;3.80;99.90;;;;;;5093715;28;20250;-79
2023/12/15 08:52:32;;;;;;;8.40;6.17;;;3.70;99.90;;;;;;5093660;28;20163;-76
2023/12/15 08:54:58;;;;;;;7.37;6.03;;;3.70;99.90;;;;;;5093862;28;20181;-79
2023/12/15 08:57:24;;;;;;;6.13;5.43;;;3.80;99.90;;;;;;5093835;28;20174;-79
2023/12/15 08:59:49;;;;;;;8.17;5.93;;;3.90;99.90;;;;;;5093562;28;20182;-79
2023/12/15 09:02:15;;;;;;;9.30;6.43;;;4.10;99.90;;;;;;5093120;28;20175;-77
2023/12/15 09:04:41;;;;;;;8.03;6.40;;;4.20;99.90;;;;;;5093589;28;20178;-76
2023/12/15 09:07:07;;;;;;;7.97;6.50;;;4.30;99.90;;;;;;5093302;28;20175;-77
2023/12/15 09:09:38;;;;;;;9.53;6.87;;;4.20;99.90;;;;;;5092135;28;20221;-77
2023/12/15 09:12:05;;;;;;;9.93;6.83;;;4.30;99.90;;;;;;5115925;28;20181;-76
2023/12/15 09:14:31;;;;;;;7.57;6.40;;;4.30;99.90;;;;;;5114011;28;20571;-80
2023/12/15 09:16:57;;;;;;;9.60;6.30;;;4.40;99.90;;;;;;5113808;28;20173;-76
2023/12/15 09:19:25;;;;;;;6.60;5.57;;;4.40;99.90;;;;;;5115287;28;20171;-77
2023/12/15 09:21:51;;;;;;;7.93;5.27;;;4.50;99.90;;;;;;5115317;28;20226;-79
2023/12/15 09:24:18;;;;;;;6.70;4.87;;;4.60;99.90;;;;;;5113766;28;20181;-76
2023/12/15 09:26:45;;;;;;;4.47;4.03;;;4.70;99.90;;;;;;5113969;28;20638;-77
2023/12/15 09:29:11;;;;;;;5.30;4.70;;;4.70;99.90;;;;;;5116856;28;20264;-76
2023/12/15 09:31:37;;;;;;;6.67;4.50;;;4.90;99.90;;;;;;5117723;28;20264;-79
2023/12/15 09:34:04;;;;;;;9.17;4.57;;;4.90;99.90;;;;;;5117369;28;20261;-77
2023/12/15 09:36:30;;;;;;;7.90;5.33;;;5.00;99.90;;;;;;5117768;28;20173;-77
2023/12/15 09:38:55;;;;;;;6.43;5.80;;;5.00;99.90;;;;;;5117345;27;20185;-79
2023/12/15 09:41:21;;;;;;;6.83;6.00;;;5.20;99.90;;;;;;5117090;28;20220;-79
2023/12/15 09:43:47;;;;;;;5.53;5.03;;;5.30;99.90;;;;;;5117762;28;20640;-79
2023/12/15 09:46:14;;;;;;;7.30;4.97;;;5.40;99.90;;;;;;5117819;28;20626;-78
2023/12/15 09:48:41;;;;;;;6.90;5.50;;;5.50;99.90;;;;;;5118029;28;20172;-77
2023/12/15 09:51:25;;;;;;;64.03;35.13;;;5.50;99.90;;;;;;5118047;28;20174;-80
2023/12/15 09:53:52;;;;;;;28.73;18.53;;;5.50;99.90;;;;;;5118056;28;20219;-78
2023/12/15 09:56:18;;;;;;;12.43;7.33;;;5.60;99.90;;;;;;5117678;28;20533;-76
2023/12/15 09:58:44;;;;;;;7.03;4.53;;;5.60;99.90;;;;;;5117553;28;20173;-77
2023/12/15 10:01:12;;;;;;;5.10;4.60;;;5.70;99.90;;;;;;5116659;28;20684;-77
2023/12/15 10:03:39;;;;;;;2.50;2.30;;;5.80;99.90;;;;;;5120302;28;20182;-77
2023/12/15 10:06:06;;;;;;;1.23;1.00;;;5.90;99.90;;;;;;5123070;28;20179;-81
2023/12/15 10:08:45;;;;;;;0.80;0.80;;;6.20;99.90;;;;;;5130092;28;20174;-77
2023/12/15 10:11:11;;;;;;;1.00;1.00;;;6.30;99.90;;;;;;5107985;28;20174;-78
2023/12/15 10:13:41;;;;;;;0.83;0.83;;;6.40;99.90;;;;;;5109316;28;20179;-76
2023/12/15 10:16:11;;;;;;;0.60;0.60;;;6.50;99.90;;;;;;5113632;28;20181;-77
2023/12/15 10:18:39;;;;;;;0.80;0.80;;;6.50;99.90;;;;;;5100976;28;20168;-78
2023/12/15 10:21:06;;;;;;;0.90;0.90;;;6.50;99.90;;;;;;5096449;28;20290;-76
2023/12/15 10:23:32;;;;;;;1.17;1.00;;;6.50;99.90;;;;;;5077859;28;20550;-78
2023/12/15 10:26:04;;;;;;;0.83;0.83;;;6.50;99.90;;;;;;5096683;28;20850;-76
2023/12/15 10:28:40;;;;;;;0.80;0.80;;;6.50;99.90;;;;;;5096243;28;20168;-78
2023/12/15 10:31:07;;;;;;;1.00;1.00;;;6.50;99.60;;;;;;5111884;28;20162;-78
2023/12/15 10:33:33;;;;;;;0.90;0.90;;;6.60;99.30;;;;;;5096632;28;20562;-78
2023/12/15 10:36:00;;;;;;;0.83;0.83;;;6.60;99.80;;;;;;5095675;28;20512;-78
2023/12/15 10:38:30;;;;;;;0.70;0.70;;;6.70;98.80;;;;;;5097502;28;20620;-80
2023/12/15 10:40:57;;;;;;;0.70;0.70;;;6.80;98.50;;;;;;5095693;28;20251;-78
2023/12/15 10:43:25;;;;;;;1.33;0.80;;;6.90;98.00;;;;;;5095464;28;20216;-78
2023/12/15 10:45:52;;;;;;;0.70;0.70;;;6.90;96.70;;;;;;5095639;28;20645;-77
2023/12/15 10:48:19;;;;;;;1.17;1.10;;;6.90;97.00;;;;;;5099235;28;20199;-77
2023/12/15 10:50:45;;;;;;;0.80;0.80;;;6.90;96.10;;;;;;5098863;28;20173;-80
2023/12/15 10:53:16;;;;;;;0.90;0.90;;;7.00;95.20;;;;;;5101326;28;20525;-79
2023/12/15 10:55:48;;;;;;;0.90;0.90;;;7.00;94.20;;;;;;5096433;28;20173;-76
2023/12/15 10:58:14;;;;;;;0.67;0.67;;;7.10;94.30;;;;;;5096914;28;20649;-76
2023/12/15 11:00:40;;;;;;;1.80;1.10;;;7.10;93.90;;;;;;5095991;28;20211;-78
2023/12/15 11:03:11;;;;;;;0.97;0.97;;;7.10;93.50;;;;;;5077770;28;20170;-78
2023/12/15 11:05:40;;;;;;;0.80;0.80;;;7.10;93.10;;;;;;5096199;28;20190;-79
2023/12/15 11:08:07;;;;;;;0.80;0.80;;;7.10;93.20;;;;;;5095393;28;20639;-80
2023/12/15 11:10:33;;;;;;;0.80;0.80;;;7.00;92.70;;;;;;5096220;28;20665;-80
2023/12/15 11:12:58;;;;;;;0.73;0.73;;;7.00;92.70;;;;;;5095792;28;20189;-80
2023/12/15 11:15:26;;;;;;;0.70;0.70;;;6.90;93.10;;;;;;5095163;28;20166;-77
2023/12/15 11:17:58;;;;;;;1.00;0.80;;;6.80;92.30;;;;;;5095763;28;20188;-78
2023/12/15 11:20:25;;;;;;;1.50;1.00;;;6.70;92.40;;;;;;5095002;28;20719;-77
2023/12/15 11:23:00;;;;;;;0.70;0.70;;;6.70;93.10;;;;;;5076905;28;20541;-77
2023/12/15 11:25:32;;;;;;;0.90;0.90;;;6.70;92.20;;;;;;5095138;28;20219;-78
2023/12/15 11:28:09;;;;;;;0.67;0.67;;;6.70;92.80;;;;;;5077806;28;20180;-81
2023/12/15 11:30:44;;;;;;;0.80;0.80;;;6.70;92.40;;;;;;5094893;28;20163;-79
2023/12/15 11:33:28;;;;;;;6.03;3.43;;;6.70;92.80;;;;;;5094909;28;20609;-79
2023/12/15 11:35:54;;;;;;;0.70;0.70;;;6.80;92.50;;;;;;5077584;28;20209;-77
2023/12/15 11:38:21;;;;;;;0.80;0.80;;;6.80;92.40;;;;;;5095863;28;20639;-76
2023/12/15 11:40:50;;;;;;;0.80;0.80;;;6.80;92.80;;;;;;5095415;28;20204;-78
2023/12/15 11:43:17;;;;;;;0.87;0.87;;;6.80;92.70;;;;;;5095760;28;20225;-76
2023/12/15 11:45:43;;;;;;;1.13;0.90;;;6.80;93.20;;;;;;5095657;28;20193;-75
2023/12/15 11:48:10;;;;;;;0.70;0.70;;;6.70;92.60;;;;;;5094934;28;20190;-76
2023/12/15 11:50:41;;;;;;;0.70;0.70;;;6.70;92.70;;;;;;5077417;28;20219;-76
2023/12/15 11:53:09;;;;;;;1.07;1.00;;;6.70;93.00;;;;;;5076418;28;20191;-78
2023/12/15 11:55:35;;;;;;;0.80;0.80;;;6.70;93.20;;;;;;5094918;28;20182;-77
2023/12/15 11:58:02;;;;;;;0.73;0.73;;;6.70;93.40;;;;;;5079016;28;20200;-77
2023/12/15 12:00:30;;;;;;;0.80;0.80;;;6.70;93.10;;;;;;5096054;28;20282;-79
2023/12/15 12:02:56;;;;;;;0.93;0.93;;;6.70;92.20;;;;;;5094412;28;20249;-79
2023/12/15 12:05:22;;;;;;;0.80;0.80;;;6.70;92.10;;;;;;5095614;28;20199;-78
2023/12/15 12:07:49;;;;;;;1.17;1.17;;;6.80;92.50;;;;;;5094194;28;20610;-77
2023/12/15 12:10:15;;;;;;;1.10;1.00;;;6.80;92.80;;;;;;5094048;28;20227;-77
2023/12/15 12:12:41;;;;;;;0.87;0.87;;;6.80;92.80;;;;;;5094187;28;20196;-77
2023/12/15 12:15:09;;;;;;;0.50;0.50;;;6.80;92.20;;;;;;5094300;28;20171;-79
2023/12/15 12:17:39;;;;;;;0.90;0.90;;;6.70;92.50;;;;;;5093220;28;20188;-78
2023/12/15 12:20:10;;;;;;;1.07;1.07;;;6.70;92.70;;;;;;5094012;28;20208;-77
2023/12/15 12:22:46;;;;;;;1.40;1.40;;;6.80;92.30;;;;;;5075842;28;20183;-77
2023/12/15 12:25:13;;;;;;;1.30;1.20;;;6.90;92.80;;;;;;5076508;28;20175;-77
2023/12/15 12:27:40;;;;;;;1.00;1.00;;;6.90;92.10;;;;;;5097852;28;20181;-79
2023/12/15 12:30:10;;;;;;;1.37;1.00;;;6.90;92.30;;;;;;5093579;28;20179;-74
2023/12/15 12:32:37;;;;;;;1.00;1.00;;;6.90;91.40;;;;;;5094585;28;20613;-76
2023/12/15 12:35:03;;;;;;;1.20;1.20;;;6.80;91.70;;;;;;5109239;28;20163;-76
2023/12/15 12:37:32;;;;;;;0.80;0.80;;;6.80;91.50;;;;;;5114548;28;20200;-79
2023/12/15 12:39:59;;;;;;;1.17;1.17;;;6.80;91.60;;;;;;5101729;28;20183;-78
2023/12/15 12:42:28;;;;;;;0.90;0.90;;;6.80;91.80;;;;;;5087041;28;20251;-76
2023/12/15 12:44:55;;;;;;;23.50;15.10;;;6.90;92.20;;;;;;5096141;28;20180;-76
2023/12/15 12:47:21;;;;;;;1.90;1.80;;;6.90;91.30;;;;;;5094347;28;20208;-80
2023/12/15 12:49:47;;;;;;;0.83;0.83;;;6.90;90.80;;;;;;5094445;28;20175;-78
2023/12/15 12:52:13;;;;;;;0.80;0.80;;;6.90;90.50;;;;;;5075388;28;20185;-79